Time;durP1;ratioP1;P1;durP2;ratioP2;P2;SDS_P1;SDS_P2;PMS_P1;PMS_P2;Temp;Humidity;BMP_temperature;BMP_pressure;BME280_temperature;BME280_humidity;BME280_pressure;Samples;Min_cycle;Max_cycle;Signal;HPM_P1;HPM_P2
2023/02/10 00:01:38;;;;;;;13.07;8.02;;;;;;;18.15;41.92;103469.03;4994102;28;20034;-77
2023/02/10 00:04:04;;;;;;;12.38;7.75;;;;;;;18.14;42.14;103464.66;4994115;28;20034;-75
2023/02/10 00:06:29;;;;;;;10.98;7.30;;;;;;;18.13;41.90;103473.50;4994163;28;20042;-76
2023/02/10 00:09:00;;;;;;;12.60;7.80;;;;;;;18.10;41.92;103473.59;4992934;28;20045;-74
2023/02/10 00:14:12;;;;;;;12.23;8.30;;;;;;;18.11;41.96;103493.81;4994748;28;20093;-75
2023/02/10 00:16:37;;;;;;;11.68;7.60;;;;;;;18.08;41.82;103492.16;4992959;28;20034;-77
2023/02/10 00:19:03;;;;;;;11.25;7.70;;;;;;;18.07;41.90;103489.56;4993337;28;20050;-75
2023/02/10 00:21:28;;;;;;;12.38;8.00;;;;;;;18.02;41.86;103500.28;4993420;28;20092;-75
2023/02/10 00:23:55;;;;;;;10.65;7.32;;;;;;;18.04;41.83;103501.13;4994865;28;20489;-75
2023/02/10 00:26:20;;;;;;;10.55;7.22;;;;;;;18.02;41.79;103495.00;4993422;28;20132;-75
2023/02/10 00:28:45;;;;;;;10.57;7.65;;;;;;;18.02;41.65;103499.44;4993849;28;20031;-77
2023/02/10 00:31:13;;;;;;;11.90;7.45;;;;;;;18.01;41.60;103506.50;4992886;28;20048;-73
2023/02/10 00:33:39;;;;;;;10.70;7.28;;;;;;;17.96;41.97;103492.66;4992911;28;20073;-75
2023/02/10 00:36:09;;;;;;;11.05;7.72;;;;;;;18.00;41.79;103504.78;4993619;28;20046;-76
2023/02/10 00:38:35;;;;;;;12.10;7.25;;;;;;;17.98;41.82;103500.50;4992349;28;20046;-76
2023/02/10 00:41:05;;;;;;;13.35;8.20;;;;;;;17.97;41.66;103499.63;4987523;28;20061;-75
2023/02/10 00:43:31;;;;;;;15.00;8.07;;;;;;;17.97;41.73;103498.78;4987676;28;20041;-76
2023/02/10 00:45:56;;;;;;;11.45;7.53;;;;;;;17.95;41.60;103502.31;4987316;28;20471;-76
2023/02/10 00:48:22;;;;;;;11.77;8.35;;;;;;;17.93;41.56;103504.16;4987260;28;20030;-76
2023/02/10 00:50:47;;;;;;;10.77;8.07;;;;;;;17.91;41.74;103503.38;4988174;28;20034;-78
2023/02/10 00:53:12;;;;;;;11.43;7.63;;;;;;;17.88;41.71;103500.84;4985808;28;20578;-77
2023/02/10 00:55:37;;;;;;;12.85;9.10;;;;;;;17.91;41.70;103513.03;4987392;28;20041;-76
2023/02/10 00:58:03;;;;;;;12.20;8.43;;;;;;;17.86;41.70;103505.28;4987916;28;20472;-78
2023/02/10 01:00:28;;;;;;;11.82;7.80;;;;;;;17.86;41.48;103504.41;4987356;28;20037;-77
2023/02/10 01:02:53;;;;;;;12.40;8.50;;;;;;;17.81;41.60;103503.75;4989191;28;20037;-77
2023/02/10 01:05:18;;;;;;;11.50;8.50;;;;;;;17.85;41.66;103508.84;4988668;28;20014;-77
2023/02/10 01:07:44;;;;;;;12.07;8.27;;;;;;;17.79;41.52;103503.81;4989814;28;20116;-76
2023/02/10 01:10:09;;;;;;;11.18;8.40;;;;;;;17.82;41.41;103508.13;4990587;28;20031;-79
2023/02/10 01:12:34;;;;;;;12.10;8.60;;;;;;;17.82;41.56;103510.75;4988548;28;20467;-76
2023/02/10 01:15:00;;;;;;;12.98;8.82;;;;;;;17.80;41.42;103518.72;4989384;28;20073;-77
2023/02/10 01:17:25;;;;;;;14.75;8.50;;;;;;;17.81;41.51;103524.84;4988840;28;20058;-77
2023/02/10 01:19:51;;;;;;;11.82;8.38;;;;;;;17.77;41.57;103530.22;4987021;28;20035;-77
2023/02/10 01:22:16;;;;;;;13.13;8.40;;;;;;;17.76;41.43;103519.75;4989347;28;20057;-76
2023/02/10 01:24:42;;;;;;;11.85;8.57;;;;;;;17.70;41.54;103506.78;4990964;28;20039;-74
2023/02/10 01:27:07;;;;;;;12.48;8.30;;;;;;;17.76;41.44;103517.09;4988593;28;20069;-75
2023/02/10 01:29:32;;;;;;;10.80;8.20;;;;;;;17.75;41.46;103531.19;4988378;28;20494;-75
2023/02/10 01:31:57;;;;;;;11.57;8.95;;;;;;;17.71;41.38;103526.97;4990562;28;20030;-75
2023/02/10 01:34:23;;;;;;;12.82;8.80;;;;;;;17.73;41.13;103540.97;4989987;28;20030;-75
2023/02/10 01:36:48;;;;;;;12.27;9.00;;;;;;;17.67;41.28;103534.13;4989422;28;20038;-77
2023/02/10 01:39:15;;;;;;;13.23;9.23;;;;;;;17.67;41.22;103539.38;4990991;28;20053;-77
2023/02/10 01:41:40;;;;;;;15.98;9.25;;;;;;;17.67;41.29;103544.66;4991589;28;20042;-77
2023/02/10 01:44:20;;;;;;;12.63;8.80;;;;;;;17.64;41.43;103546.56;4993139;28;20038;-74
2023/02/10 01:46:47;;;;;;;12.07;8.23;;;;;;;17.61;41.44;103539.66;5020495;28;20068;-77
2023/02/10 01:49:15;;;;;;;12.73;8.40;;;;;;;17.64;41.37;103544.81;5014570;28;20038;-75
2023/02/10 01:51:50;;;;;;;12.43;9.10;;;;;;;17.61;41.34;103534.38;5014168;28;20014;-78
2023/02/10 01:54:22;;;;;;;13.07;9.05;;;;;;;17.58;41.32;103532.69;5014572;28;20037;-77
2023/02/10 01:56:47;;;;;;;12.95;8.95;;;;;;;17.63;41.18;103532.53;5015992;28;20041;-76
2023/02/10 01:59:14;;;;;;;12.05;8.55;;;;;;;17.56;41.36;103521.34;5014260;28;20040;-75
2023/02/10 02:01:39;;;;;;;12.13;9.52;;;;;;;17.57;41.35;103512.50;5017628;28;20527;-75
2023/02/10 02:04:05;;;;;;;11.52;9.05;;;;;;;17.62;41.00;103516.75;5011199;28;20037;-75
2023/02/10 02:06:33;;;;;;;14.90;9.55;;;;;;;17.59;41.31;103518.59;5011886;28;20060;-76
2023/02/10 02:08:58;;;;;;;12.88;9.73;;;;;;;17.58;41.27;103513.38;5015618;28;20033;-75
2023/02/10 02:11:40;;;;;;;11.15;8.68;;;;;;;17.56;41.22;103513.44;5009121;28;20125;-77
2023/02/10 02:14:39;;;;;;;12.63;9.20;;;;;;;17.54;41.15;103502.06;5012134;28;20065;-78
2023/02/10 02:17:14;;;;;;;13.15;9.15;;;;;;;17.56;41.27;103504.66;5012938;28;20026;-76
2023/02/10 02:22:55;;;;;;;13.40;9.10;;;;;;;17.55;41.17;103516.13;4993587;28;20132;-75
2023/02/10 02:25:49;;;;;;;13.57;8.75;;;;;;;17.47;41.29;103507.66;4997687;28;20031;-75
2023/02/10 02:28:47;;;;;;;14.73;9.25;;;;;;;17.52;41.23;103517.09;4994781;28;20026;-76
2023/02/10 02:31:36;;;;;;;14.30;9.48;;;;;;;17.47;41.09;103505.84;4996804;28;20046;-76
2023/02/10 02:34:08;;;;;;;15.38;10.43;;;;;;;17.45;41.15;103509.44;5007191;28;20026;-77
2023/02/10 02:36:39;;;;;;;14.35;9.25;;;;;;;17.49;40.99;103529.53;5004730;28;20038;-77
2023/02/10 02:39:05;;;;;;;12.25;8.25;;;;;;;17.46;41.32;103522.59;5000315;28;20760;-77
2023/02/10 02:41:32;;;;;;;13.32;9.25;;;;;;;17.43;41.36;103516.56;4995205;28;20030;-75
2023/02/10 02:43:59;;;;;;;11.75;9.27;;;;;;;17.46;41.53;103530.50;4994460;28;20070;-75
2023/02/10 02:46:50;;;;;;;16.00;9.45;;;;;;;17.45;41.36;103528.78;4995438;28;20074;-75
2023/02/10 02:49:41;;;;;;;11.90;8.63;;;;;;;17.40;41.25;103520.16;4995835;28;20017;-78
2023/02/10 02:52:23;;;;;;;12.20;9.30;;;;;;;17.44;41.15;103532.34;4995146;28;20101;-75
2023/02/10 02:55:03;;;;;;;12.25;9.15;;;;;;;17.39;41.38;103514.03;4993378;28;20097;-75
2023/02/10 02:57:51;;;;;;;12.38;8.52;;;;;;;17.43;41.47;103527.97;4994590;28;20137;-76
2023/02/10 03:00:23;;;;;;;14.80;9.40;;;;;;;17.41;41.17;103516.63;4992546;28;20026;-76
2023/02/10 03:02:49;;;;;;;13.50;9.27;;;;;;;17.39;41.28;103505.28;4994710;28;20124;-77
2023/02/10 03:05:21;;;;;;;11.50;8.48;;;;;;;17.40;41.10;103509.63;4993584;28;20152;-75
2023/02/10 03:07:46;;;;;;;13.13;8.85;;;;;;;17.39;41.17;103514.03;4993721;28;20026;-75
2023/02/10 03:10:11;;;;;;;13.10;9.70;;;;;;;17.39;41.01;103518.47;4994630;28;21358;-77
2023/02/10 03:12:37;;;;;;;12.35;8.75;;;;;;;17.40;41.07;103533.34;4994080;28;20035;-76
2023/02/10 03:15:02;;;;;;;13.75;9.35;;;;;;;17.32;41.11;103519.59;4994429;28;20438;-77
2023/02/10 03:17:28;;;;;;;13.32;9.15;;;;;;;17.34;40.93;103523.00;4994419;28;20050;-77
2023/02/10 03:19:53;;;;;;;14.32;9.25;;;;;;;17.36;40.90;103534.38;4994377;28;20113;-77
2023/02/10 03:22:18;;;;;;;12.70;8.73;;;;;;;17.36;41.05;103544.94;4995063;28;20563;-75
2023/02/10 03:24:44;;;;;;;13.57;9.15;;;;;;;17.34;40.91;103541.47;4994865;28;20049;-77
2023/02/10 03:27:09;;;;;;;11.63;8.73;;;;;;;17.32;41.07;103538.91;4994090;28;20038;-76
2023/02/10 03:29:34;;;;;;;13.63;9.48;;;;;;;17.34;40.97;103552.91;4994730;28;20042;-77
2023/02/10 03:32:01;;;;;;;12.43;8.95;;;;;;;17.34;40.95;103549.38;4994556;28;20548;-76
2023/02/10 03:34:27;;;;;;;13.98;9.43;;;;;;;17.33;41.34;103537.13;4994377;28;20490;-74
2023/02/10 03:36:52;;;;;;;14.05;8.80;;;;;;;17.34;41.29;103552.00;4993393;28;20033;-76
2023/02/10 03:39:18;;;;;;;13.63;9.15;;;;;;;17.31;41.11;103547.72;4993554;28;20113;-75
2023/02/10 03:41:43;;;;;;;14.40;9.63;;;;;;;17.31;41.21;103549.50;4994789;28;20041;-75
2023/02/10 03:44:08;;;;;;;14.02;9.48;;;;;;;17.30;41.29;103553.91;4993749;28;20034;-77
2023/02/10 03:46:35;;;;;;;14.05;9.32;;;;;;;17.29;41.26;103546.94;4994057;28;20046;-76
2023/02/10 03:49:01;;;;;;;11.82;9.10;;;;;;;17.29;41.34;103543.41;4993826;28;20045;-75
2023/02/10 03:51:26;;;;;;;12.55;9.10;;;;;;;17.29;41.27;103548.69;4993339;28;20387;-77
2023/02/10 03:53:51;;;;;;;14.98;9.13;;;;;;;17.33;41.45;103560.84;4992301;28;20042;-76
2023/02/10 03:56:16;;;;;;;13.98;9.18;;;;;;;17.30;41.18;103551.28;4994590;28;20478;-76
2023/02/10 03:58:42;;;;;;;13.50;9.98;;;;;;;17.27;41.25;103548.75;4994235;28;20101;-76
2023/02/10 04:01:15;;;;;;;13.00;8.95;;;;;;;17.32;41.22;103562.63;4994450;28;20027;-76
2023/02/10 04:03:40;;;;;;;12.17;8.80;;;;;;;17.32;41.28;103562.63;4993489;28;20030;-75
2023/02/10 04:06:07;;;;;;;12.80;8.63;;;;;;;17.33;41.39;103556.44;5001699;28;20030;-75
2023/02/10 04:08:33;;;;;;;11.52;8.55;;;;;;;17.29;41.24;103543.41;4992911;28;20058;-76
2023/02/10 04:10:58;;;;;;;13.90;9.73;;;;;;;17.31;41.34;103545.09;4991360;28;20092;-76
2023/02/10 04:13:23;;;;;;;13.18;8.63;;;;;;;17.33;41.21;103551.16;5000755;28;20045;-77
2023/02/10 04:15:49;;;;;;;12.70;9.25;;;;;;;17.30;41.51;103545.16;4993469;28;20441;-74
2023/02/10 04:18:14;;;;;;;13.00;8.57;;;;;;;17.35;41.30;103556.38;4999608;28;20486;-77
2023/02/10 04:20:39;;;;;;;11.25;8.90;;;;;;;17.33;41.04;103553.78;4994977;28;20034;-74
2023/02/10 04:23:04;;;;;;;11.05;8.35;;;;;;;17.32;41.20;103559.13;4992551;28;20495;-74
2023/02/10 04:25:30;;;;;;;11.70;8.65;;;;;;;17.33;41.35;103559.06;4992771;28;20085;-76
2023/02/10 04:27:55;;;;;;;12.50;8.60;;;;;;;17.30;41.20;103550.41;4993170;28;20133;-74
2023/02/10 04:30:20;;;;;;;10.82;8.73;;;;;;;17.32;41.17;103564.41;4992842;28;20087;-76
2023/02/10 04:32:46;;;;;;;13.10;8.35;;;;;;;17.30;41.12;103556.53;4993364;28;20486;-73
2023/02/10 04:35:12;;;;;;;11.75;8.75;;;;;;;17.35;41.45;103556.38;4993904;28;20080;-76
2023/02/10 04:37:37;;;;;;;13.27;9.15;;;;;;;17.33;41.17;103556.44;4994162;28;20153;-76
2023/02/10 04:40:03;;;;;;;11.45;8.43;;;;;;;17.36;41.19;103558.13;4993596;28;20041;-77
2023/02/10 04:42:31;;;;;;;11.60;8.90;;;;;;;17.33;41.12;103559.06;4992418;28;20403;-73
2023/02/10 04:44:58;;;;;;;13.52;8.93;;;;;;;17.34;41.25;103557.28;4992828;28;20038;-75
2023/02/10 04:47:28;;;;;;;14.27;9.15;;;;;;;17.34;41.38;103554.66;4992071;28;20364;-74
2023/02/10 04:49:53;;;;;;;14.68;9.48;;;;;;;17.36;41.16;103563.38;4993002;28;20446;-76
2023/02/10 04:52:19;;;;;;;14.07;9.48;;;;;;;17.34;41.33;103557.28;4991543;28;20025;-75
2023/02/10 04:54:44;;;;;;;12.95;9.27;;;;;;;17.38;41.49;103558.91;4991528;28;20456;-76
2023/02/10 04:57:10;;;;;;;14.85;9.85;;;;;;;17.38;41.40;103561.53;4993369;28;20034;-75
2023/02/10 04:59:35;;;;;;;13.40;9.30;;;;;;;17.35;41.32;103562.50;4990932;28;20038;-76
2023/02/10 05:02:02;;;;;;;14.23;9.88;;;;;;;17.37;41.28;103559.81;4991130;28;20053;-77
2023/02/10 05:04:27;;;;;;;15.02;10.02;;;;;;;17.36;41.44;103555.47;4991851;28;20034;-76
2023/02/10 05:06:53;;;;;;;14.07;10.50;;;;;;;17.38;41.66;103556.28;4992262;28;20137;-76
2023/02/10 05:09:18;;;;;;;15.77;9.60;;;;;;;17.36;41.89;103563.38;4991476;28;20117;-74
2023/02/10 05:11:44;;;;;;;13.38;9.10;;;;;;;17.37;41.65;103565.09;4990846;28;20054;-76
2023/02/10 05:14:09;;;;;;;14.80;10.00;;;;;;;17.38;41.67;103575.56;4991035;28;20105;-76
2023/02/10 05:16:34;;;;;;;15.48;10.35;;;;;;;17.38;41.47;103583.50;4992564;28;20042;-76
2023/02/10 05:18:59;;;;;;;13.60;9.52;;;;;;;17.37;41.42;103584.41;4992817;28;20045;-75
2023/02/10 05:21:25;;;;;;;15.77;10.75;;;;;;;17.38;41.66;103580.00;4991398;28;20089;-78
2023/02/10 05:23:50;;;;;;;14.60;9.95;;;;;;;17.39;41.81;103589.66;4992353;28;20042;-78
2023/02/10 05:26:15;;;;;;;14.68;9.85;;;;;;;17.39;41.66;103579.09;5007324;28;20058;-78
2023/02/10 05:28:41;;;;;;;15.65;11.02;;;;;;;17.35;41.51;103566.94;4990526;28;20471;-78
2023/02/10 05:31:08;;;;;;;16.42;10.18;;;;;;;17.35;41.67;103565.13;4989971;28;20530;-76
2023/02/10 05:33:34;;;;;;;13.75;9.93;;;;;;;17.37;41.92;103576.50;4991625;28;20112;-77
2023/02/10 05:35:59;;;;;;;13.38;9.63;;;;;;;17.38;41.54;103572.94;4998783;28;20525;-74
2023/02/10 05:38:26;;;;;;;15.38;9.88;;;;;;;17.34;41.45;103573.97;4991893;28;20046;-77
2023/02/10 05:40:51;;;;;;;12.68;8.38;;;;;;;17.34;41.20;103571.34;4989118;28;20391;-73
2023/02/10 05:43:16;;;;;;;12.75;8.13;;;;;;;17.41;40.78;103564.94;4990389;28;20037;-75
2023/02/10 05:45:42;;;;;;;13.60;8.43;;;;;;;17.39;40.90;103581.72;4991360;28;20065;-78
2023/02/10 05:48:08;;;;;;;13.45;8.25;;;;;;;17.41;41.00;103583.38;4989174;28;20042;-75
2023/02/10 05:50:33;;;;;;;11.85;7.90;;;;;;;17.40;41.24;103584.31;4989697;28;20030;-75
2023/02/10 05:52:58;;;;;;;12.38;8.40;;;;;;;17.47;41.11;103584.09;4990362;28;20033;-75
2023/02/10 05:55:24;;;;;;;12.23;7.80;;;;;;;17.54;41.15;103580.31;4990329;28;20072;-75
2023/02/10 05:57:51;;;;;;;11.60;7.80;;;;;;;17.59;41.26;103588.91;4985297;28;20034;-76
2023/02/10 06:00:17;;;;;;;13.00;7.28;;;;;;;17.58;41.25;103577.53;4998739;28;20034;-76
2023/02/10 06:02:42;;;;;;;13.18;8.23;;;;;;;17.66;41.14;103587.81;4986821;28;20039;-75
2023/02/10 06:05:07;;;;;;;11.32;8.02;;;;;;;17.67;41.20;103586.88;4986189;28;20046;-75
2023/02/10 06:07:33;;;;;;;12.93;7.60;;;;;;;17.71;41.20;103593.75;4988777;28;20072;-76
2023/02/10 06:09:58;;;;;;;11.20;7.30;;;;;;;17.70;41.38;103585.91;4990076;28;20035;-76
2023/02/10 06:12:23;;;;;;;9.65;7.10;;;;;;;17.74;41.25;103577.81;4988611;28;20046;-76
2023/02/10 06:14:49;;;;;;;10.68;7.00;;;;;;;17.77;41.30;103585.63;4991039;28;20046;-77
2023/02/10 06:17:14;;;;;;;10.30;6.72;;;;;;;17.80;41.16;103584.66;4989908;28;20053;-77
2023/02/10 06:19:39;;;;;;;10.98;6.97;;;;;;;17.80;41.34;103583.78;4988546;28;20427;-75
2023/02/10 06:22:06;;;;;;;10.73;7.10;;;;;;;17.86;41.01;103591.47;4988999;28;20065;-76
2023/02/10 06:24:32;;;;;;;12.75;8.00;;;;;;;17.81;41.41;103575.81;4989696;28;20042;-76
2023/02/10 06:26:57;;;;;;;10.90;6.90;;;;;;;17.86;41.33;103583.56;4999389;28;20096;-78
2023/02/10 06:29:23;;;;;;;11.27;7.53;;;;;;;17.86;41.34;103586.19;4990075;28;20026;-77
2023/02/10 06:31:48;;;;;;;10.93;6.97;;;;;;;17.86;41.33;103579.13;4990403;28;20201;-76
2023/02/10 06:34:13;;;;;;;11.55;6.85;;;;;;;17.88;41.17;103576.47;4988973;28;20032;-75
2023/02/10 06:36:38;;;;;;;11.65;6.97;;;;;;;17.92;41.33;103592.13;4989867;28;20048;-74
2023/02/10 06:39:04;;;;;;;11.48;7.60;;;;;;;17.84;41.40;103578.34;4989598;28;20042;-75
2023/02/10 06:41:29;;;;;;;10.55;7.15;;;;;;;17.92;41.14;103589.50;4991048;28;20429;-75
2023/02/10 06:43:54;;;;;;;12.70;7.32;;;;;;;17.89;40.99;103591.41;5002038;28;20031;-75
2023/02/10 06:46:20;;;;;;;10.07;7.00;;;;;;;17.95;41.20;103596.47;4989822;28;20054;-74
2023/02/10 06:48:45;;;;;;;11.90;7.15;;;;;;;17.98;41.48;103584.94;5003030;28;20109;-71
2023/02/10 06:51:10;;;;;;;13.48;7.32;;;;;;;17.99;41.27;103584.00;4996394;28;20053;-72
2023/02/10 06:53:36;;;;;;;11.82;7.93;;;;;;;17.96;41.37;103582.34;4991108;28;20092;-73
2023/02/10 06:56:01;;;;;;;12.95;7.25;;;;;;;17.99;41.45;103586.63;4993014;28;20382;-72
2023/02/10 06:58:26;;;;;;;10.27;7.20;;;;;;;17.99;41.69;103584.00;4993190;28;20081;-72
2023/02/10 07:00:52;;;;;;;10.85;7.10;;;;;;;18.00;41.65;103589.22;4993754;28;20038;-73
2023/02/10 07:03:17;;;;;;;11.75;7.63;;;;;;;18.00;41.79;103588.38;4993735;28;20041;-73
2023/02/10 07:05:42;;;;;;;10.65;7.03;;;;;;;17.98;41.91;103583.16;4999874;28;20034;-74
2023/02/10 07:08:08;;;;;;;11.80;7.32;;;;;;;18.00;41.93;103594.50;5010711;28;20090;-75
2023/02/10 07:10:34;;;;;;;10.65;7.18;;;;;;;17.99;41.92;103603.34;4993973;28;20038;-75
2023/02/10 07:12:59;;;;;;;12.25;7.55;;;;;;;18.03;42.05;103615.50;5008038;28;20113;-75
2023/02/10 07:15:25;;;;;;;11.20;8.05;;;;;;;18.03;42.11;103617.28;4992668;28;20441;-72
2023/02/10 07:17:51;;;;;;;14.77;8.15;;;;;;;18.04;42.37;103617.22;4991441;28;20050;-73
2023/02/10 07:20:20;;;;;;;11.15;7.43;;;;;;;18.07;42.52;103616.22;4990179;28;20038;-73
2023/02/10 07:22:46;;;;;;;12.75;8.55;;;;;;;18.05;42.58;103610.16;4991207;28;21004;-75
2023/02/10 07:25:11;;;;;;;13.02;7.95;;;;;;;18.05;42.60;103610.16;4992575;28;20038;-75
2023/02/10 07:27:36;;;;;;;12.30;7.55;;;;;;;18.04;42.94;103611.94;4990030;28;20038;-76
2023/02/10 07:30:02;;;;;;;14.63;8.75;;;;;;;18.07;42.87;103622.41;4988605;28;20057;-73
2023/02/10 07:32:27;;;;;;;14.05;8.07;;;;;;;18.06;42.80;103623.31;4987865;28;20031;-75
2023/02/10 07:34:52;;;;;;;12.95;8.38;;;;;;;18.03;42.93;103618.13;4987537;28;20475;-75
2023/02/10 07:37:18;;;;;;;14.40;8.50;;;;;;;18.05;42.94;103613.66;4988754;28;20476;-77
2023/02/10 07:39:43;;;;;;;14.35;9.07;;;;;;;18.02;42.80;103605.84;4986982;28;20038;-78
2023/02/10 07:42:08;;;;;;;12.98;8.18;;;;;;;18.04;42.93;103614.59;4989359;28;20061;-77
2023/02/10 07:44:34;;;;;;;14.65;8.15;;;;;;;18.00;43.12;103610.31;4989251;28;20096;-75
2023/02/10 07:46:59;;;;;;;15.40;8.50;;;;;;;18.04;43.20;103619.88;4988893;28;20062;-74
2023/02/10 07:49:28;;;;;;;14.13;8.82;;;;;;;18.03;43.15;103612.84;4990144;28;20120;-72
2023/02/10 07:51:54;;;;;;;13.43;8.43;;;;;;;18.10;43.46;103626.69;4990731;28;20046;-73
2023/02/10 07:54:19;;;;;;;11.90;7.72;;;;;;;18.08;43.25;103616.19;4989564;28;20495;-79
2023/02/10 07:56:44;;;;;;;13.73;8.30;;;;;;;18.14;43.43;103617.75;4990187;28;20038;-74
2023/02/10 07:59:10;;;;;;;15.57;9.75;;;;;;;18.17;44.00;103622.91;4991566;28;20072;-74
2023/02/10 08:01:41;;;;;;;15.48;9.38;;;;;;;18.11;44.01;103608.16;4993757;28;20073;-71
2023/02/10 08:04:06;;;;;;;14.75;9.10;;;;;;;18.14;43.47;103620.38;4992390;28;20518;-71
2023/02/10 08:06:32;;;;;;;14.43;8.68;;;;;;;18.15;43.58;103626.50;4993927;28;20033;-70
2023/02/10 08:08:57;;;;;;;13.40;9.15;;;;;;;18.17;43.36;103629.97;4993661;28;20044;-72
2023/02/10 08:11:22;;;;;;;15.65;9.23;;;;;;;18.19;43.26;103628.13;4991872;28;20088;-71
2023/02/10 08:13:48;;;;;;;14.85;9.15;;;;;;;18.21;43.52;103644.75;4992004;28;20077;-70
2023/02/10 08:16:13;;;;;;;14.75;9.00;;;;;;;18.20;43.43;103643.03;4993678;28;20040;-70
2023/02/10 08:18:38;;;;;;;15.32;9.07;;;;;;;18.14;43.18;103641.50;4995156;28;20040;-71
2023/02/10 08:21:04;;;;;;;14.30;9.32;;;;;;;18.22;43.35;103657.91;4994741;28;20042;-70
2023/02/10 08:23:29;;;;;;;15.20;9.70;;;;;;;18.17;43.36;103649.31;4998854;28;21184;-71
2023/02/10 08:25:55;;;;;;;17.88;10.32;;;;;;;18.19;43.15;103643.97;4993802;28;20039;-72
2023/02/10 08:28:20;;;;;;;14.77;9.93;;;;;;;18.17;43.38;103640.53;4991510;28;20426;-74
2023/02/10 08:30:46;;;;;;;16.05;10.27;;;;;;;18.17;43.42;103629.97;4991031;28;20394;-75
2023/02/10 08:33:11;;;;;;;13.73;9.73;;;;;;;18.19;43.95;103641.31;4992349;28;20029;-75
2023/02/10 08:35:37;;;;;;;16.00;10.30;;;;;;;18.13;43.72;103637.13;4993284;28;20033;-80
2023/02/10 08:38:04;;;;;;;12.68;8.52;;;;;;;18.20;43.58;103656.22;4994617;28;20567;-78
2023/02/10 08:40:29;;;;;;;16.13;9.13;;;;;;;18.20;43.50;103659.75;4999828;28;20029;-78
2023/02/10 08:42:55;;;;;;;13.93;9.25;;;;;;;18.19;43.44;103657.16;4992462;28;20029;-77
2023/02/10 08:45:20;;;;;;;17.48;9.32;;;;;;;18.20;43.23;103672.06;4997885;28;20031;-79
2023/02/10 08:47:46;;;;;;;15.35;9.70;;;;;;;18.19;43.43;103673.00;4997915;28;20030;-78
2023/02/10 08:50:11;;;;;;;14.60;9.05;;;;;;;18.14;43.56;103662.59;4997196;28;20045;-78
2023/02/10 08:52:36;;;;;;;16.33;9.73;;;;;;;18.21;43.44;103671.16;4990624;28;20034;-78
2023/02/10 08:55:02;;;;;;;16.58;10.30;;;;;;;18.17;43.46;103651.09;4991675;28;20543;-79
2023/02/10 08:57:28;;;;;;;15.73;10.07;;;;;;;18.19;43.14;103646.59;4990916;28;20026;-79
2023/02/10 08:59:53;;;;;;;15.88;9.73;;;;;;;18.22;43.18;103649.13;4992846;28;20037;-74
2023/02/10 09:02:19;;;;;;;18.63;9.73;;;;;;;18.19;43.02;103647.44;4994337;28;20044;-79
2023/02/10 09:04:44;;;;;;;16.00;9.65;;;;;;;18.22;43.07;103641.22;4998095;28;20029;-77
2023/02/10 09:07:11;;;;;;;16.42;10.02;;;;;;;18.21;43.15;103647.41;4991570;28;20515;-77
2023/02/10 09:09:39;;;;;;;15.57;10.50;;;;;;;18.20;43.01;103649.19;4993043;28;20037;-77
2023/02/10 09:12:05;;;;;;;18.90;10.35;;;;;;;18.16;43.23;103641.44;4991310;28;20540;-78
2023/02/10 09:14:30;;;;;;;18.20;10.75;;;;;;;18.21;43.22;103653.53;4992621;28;20046;-77
2023/02/10 09:16:56;;;;;;;16.63;10.27;;;;;;;18.21;43.11;103660.59;4992675;28;20038;-77
2023/02/10 09:19:23;;;;;;;15.90;10.20;;;;;;;18.19;43.20;103650.09;4992530;28;20093;-78
2023/02/10 09:21:49;;;;;;;14.63;9.65;;;;;;;18.12;43.11;103649.47;4992979;28;20034;-77
2023/02/10 09:24:15;;;;;;;20.55;11.25;;;;;;;18.17;43.46;103651.09;4992209;28;20049;-77
2023/02/10 09:26:40;;;;;;;15.90;9.32;;;;;;;18.19;43.29;103651.88;4993753;28;20070;-75
2023/02/10 09:29:07;;;;;;;17.35;9.20;;;;;;;18.19;43.16;103658.00;4991796;28;20084;-78
2023/02/10 09:31:33;;;;;;;13.90;8.77;;;;;;;18.19;43.20;103655.38;4999050;28;20392;-77
2023/02/10 09:33:59;;;;;;;17.40;10.27;;;;;;;18.20;43.32;103659.75;4992737;28;20022;-78
2023/02/10 09:36:25;;;;;;;15.55;10.23;;;;;;;18.21;43.17;103665.88;4993468;28;20045;-78
2023/02/10 09:38:50;;;;;;;14.52;9.63;;;;;;;18.24;43.23;103663.97;4990895;28;20153;-78
2023/02/10 09:41:34;;;;;;;15.70;8.95;;;;;;;18.23;43.30;103669.31;4991162;28;20084;-81
2023/02/10 09:43:59;;;;;;;13.63;9.57;;;;;;;18.24;43.47;103666.63;4988986;28;20039;-78
2023/02/10 09:46:50;;;;;;;15.87;9.90;;;;;;;18.20;43.14;103659.75;4989254;28;20042;-77
2023/02/10 09:49:15;;;;;;;16.85;10.32;;;;;;;18.25;43.30;103663.06;4989371;28;20291;-71
2023/02/10 09:52:08;;;;;;;14.53;8.97;;;;;;;18.21;43.33;103653.53;4989760;28;20038;-81
2023/02/10 09:54:35;;;;;;;17.52;9.43;;;;;;;18.16;43.46;103639.66;4986840;28;20061;-78
2023/02/10 09:57:05;;;;;;;15.20;9.20;;;;;;;18.24;43.24;103653.41;4988311;28;20109;-78
2023/02/10 09:59:34;;;;;;;16.30;10.20;;;;;;;18.26;43.32;103650.72;4991186;28;20427;-73
2023/02/10 10:02:10;;;;;;;14.35;9.50;;;;;;;18.30;43.19;103655.81;4991817;28;20033;-71
2023/02/10 10:04:36;;;;;;;16.08;10.30;;;;;;;18.29;43.20;103655.88;4988293;28;20058;-73
2023/02/10 10:07:20;;;;;;;19.92;11.43;;;;;;;18.29;43.74;103655.88;4989327;28;20121;-73
2023/02/10 10:09:53;;;;;;;17.40;10.25;;;;;;;18.27;44.13;103648.03;4986211;28;20042;-72
2023/02/10 10:12:20;;;;;;;18.70;10.45;;;;;;;18.33;44.15;103657.50;4989878;28;20037;-73
2023/02/10 10:14:47;;;;;;;16.85;10.88;;;;;;;18.33;44.74;103659.28;4989242;28;20054;-74
2023/02/10 10:17:34;;;;;;;17.02;10.18;;;;;;;18.37;44.70;103667.00;4988420;28;20042;-74
2023/02/10 10:20:38;;;;;;;19.73;11.25;;;;;;;18.44;44.51;103675.59;4986206;28;20062;-78
2023/02/10 10:23:18;;;;;;;20.03;11.13;;;;;;;18.43;44.37;103687.91;4964618;28;20045;-72
2023/02/10 10:26:01;;;;;;;20.05;10.43;;;;;;;18.49;44.05;103668.34;4988889;28;20038;-72
2023/02/10 10:28:58;;;;;;;18.63;10.68;;;;;;;18.57;43.94;103673.34;4987454;28;20046;-76
2023/02/10 10:31:30;;;;;;;16.08;10.43;;;;;;;18.58;43.95;103661.84;4988261;28;20058;-76
2023/02/10 10:34:05;;;;;;;19.50;10.50;;;;;;;18.59;44.12;103666.19;4986698;28;20069;-75
2023/02/10 10:36:42;;;;;;;;;;;;;;;18.64;44.16;103664.25;4990361;28;20463;-75
2023/02/10 10:39:13;;;;;;;21.27;11.57;;;;;;;18.67;44.18;103672.03;4986487;28;19913;-76
2023/02/10 10:41:41;;;;;;;21.27;12.13;;;;;;;18.68;44.45;103673.78;4989070;28;20038;-73
2023/02/10 10:44:09;;;;;;;18.42;10.63;;;;;;;18.64;44.42;103670.41;4988812;28;20041;-72
2023/02/10 10:46:42;;;;;;;18.25;11.43;;;;;;;18.68;44.38;103669.34;4989374;28;20053;-73
2023/02/10 10:49:08;;;;;;;19.77;12.05;;;;;;;18.68;44.36;103668.50;4988148;28;20041;-74
2023/02/10 10:51:34;;;;;;;18.00;11.20;;;;;;;18.72;43.77;103666.59;4987096;28;20042;-76
2023/02/10 10:54:00;;;;;;;22.23;11.32;;;;;;;18.71;44.04;103659.56;4992487;28;20026;-73
2023/02/10 10:56:49;;;;;;;17.10;10.32;;;;;;;18.74;44.61;103662.97;4993058;28;20153;-72
2023/02/10 10:59:25;;;;;;;18.75;10.70;;;;;;;18.75;44.68;103655.91;4992637;28;20041;-75
2023/02/10 11:01:52;;;;;;;21.98;10.50;;;;;;;18.71;44.27;103649.00;4992008;28;20069;-73
2023/02/10 11:04:25;;;;;;;15.60;9.80;;;;;;;18.69;44.02;103651.69;4994627;28;20030;-73
2023/02/10 11:06:55;;;;;;;17.20;10.02;;;;;;;18.64;43.96;103635.19;4991227;28;20474;-74
2023/02/10 11:09:29;;;;;;;16.75;10.63;;;;;;;18.68;44.19;103647.34;4993235;28;20088;-75
2023/02/10 11:12:02;;;;;;;17.15;10.50;;;;;;;18.64;44.38;103640.47;5004070;28;20378;-73
2023/02/10 11:14:28;;;;;;;19.77;10.20;;;;;;;18.63;44.29;103630.84;4993057;28;20081;-75
2023/02/10 11:17:01;;;;;;;16.30;9.43;;;;;;;18.66;44.37;103630.72;4994071;28;20497;-72
2023/02/10 11:19:33;;;;;;;18.63;9.98;;;;;;;18.71;44.27;103635.78;4993990;28;20038;-73
2023/02/10 11:21:59;;;;;;;16.30;10.02;;;;;;;18.76;44.54;103625.94;4992254;28;20058;-77
2023/02/10 11:24:28;;;;;;;17.52;10.98;;;;;;;18.72;44.96;103617.25;4992592;28;20042;-75
2023/02/10 11:27:00;;;;;;;15.05;10.35;;;;;;;18.76;45.21;103629.41;4992878;28;20030;-76